Time;durP1;ratioP1;P1;durP2;ratioP2;P2;SDS_P1;SDS_P2;PMS_P1;PMS_P2;Temp;Humidity;BMP_temperature;BMP_pressure;BME280_temperature;BME280_humidity;BME280_pressure;Samples;Min_cycle;Max_cycle;Signal;HPM_P1;HPM_P2
2022/04/16 00:00:27;;;;;;;47.47;28.70;;;4.70;99.90;;;;;;5073836;28;20031;-70
2022/04/16 00:02:54;;;;;;;45.58;27.73;;;4.70;99.90;;;;;;5073770;28;20036;-70
2022/04/16 00:05:23;;;;;;;50.20;29.50;;;4.70;99.90;;;;;;5073791;28;20028;-70
2022/04/16 00:08:06;;;;;;;48.35;30.00;;;4.70;99.90;;;;;;5072334;28;20107;-70
2022/04/16 00:10:33;;;;;;;45.67;28.88;;;4.60;99.90;;;;;;5073536;28;20029;-70
2022/04/16 00:12:59;;;;;;;47.80;30.00;;;4.60;99.90;;;;;;5073432;28;20029;-70
2022/04/16 00:15:26;;;;;;;47.95;28.70;;;4.60;99.90;;;;;;5073536;28;20494;-70
2022/04/16 00:17:51;;;;;;;50.70;31.10;;;4.60;99.90;;;;;;5073633;28;20032;-70
2022/04/16 00:20:17;;;;;;;51.90;31.42;;;4.60;99.90;;;;;;5073307;28;20032;-70
2022/04/16 00:22:43;;;;;;;55.85;32.17;;;4.60;99.90;;;;;;5073503;28;20376;-70
2022/04/16 00:25:08;;;;;;;54.83;30.58;;;4.60;99.90;;;;;;5073317;28;20054;-71
2022/04/16 00:27:34;;;;;;;55.88;31.30;;;4.60;99.90;;;;;;5073341;28;20044;-70
2022/04/16 00:30:01;;;;;;;53.30;29.80;;;4.60;99.90;;;;;;5073453;28;20019;-70
2022/04/16 00:32:27;;;;;;;51.97;31.00;;;4.50;99.90;;;;;;5073272;28;20024;-70
2022/04/16 00:34:53;;;;;;;54.15;30.52;;;4.50;99.90;;;;;;5073463;28;20522;-70
2022/04/16 00:37:18;;;;;;;55.25;31.77;;;4.40;99.90;;;;;;5072080;28;20055;-70
2022/04/16 00:39:44;;;;;;;55.45;31.48;;;4.40;99.90;;;;;;5072004;28;20032;-70
2022/04/16 00:42:09;;;;;;;54.63;31.95;;;4.50;99.90;;;;;;5072892;28;20064;-70
2022/04/16 00:44:35;;;;;;;52.17;30.25;;;4.40;99.90;;;;;;5073192;28;20032;-70
2022/04/16 00:47:00;;;;;;;58.25;32.47;;;4.30;99.90;;;;;;5073336;28;20024;-70
2022/04/16 00:49:26;;;;;;;55.60;31.63;;;4.30;99.90;;;;;;5073126;28;20036;-70
2022/04/16 00:51:51;;;;;;;58.28;32.72;;;4.30;99.90;;;;;;5072982;28;20040;-70
2022/04/16 00:54:18;;;;;;;54.80;32.65;;;4.40;99.90;;;;;;5072995;28;20419;-70
2022/04/16 00:56:44;;;;;;;56.65;34.13;;;4.40;99.90;;;;;;5072056;28;20547;-70
2022/04/16 00:59:10;;;;;;;65.53;33.35;;;4.40;99.90;;;;;;5073158;28;20025;-70
2022/04/16 01:01:35;;;;;;;61.40;32.30;;;4.40;99.90;;;;;;5071920;28;20031;-70
2022/04/16 01:04:02;;;;;;;64.72;34.45;;;4.40;99.90;;;;;;5071753;28;20099;-69
2022/04/16 01:06:36;;;;;;;53.88;31.10;;;4.40;99.90;;;;;;5073130;28;20025;-70
2022/04/16 01:09:02;;;;;;;60.13;34.20;;;4.30;99.90;;;;;;5073074;28;20024;-69
2022/04/16 01:11:28;;;;;;;60.85;36.15;;;4.30;99.90;;;;;;5072848;28;20028;-70
2022/04/16 01:13:53;;;;;;;60.90;34.83;;;4.30;99.90;;;;;;5072806;28;20100;-70
2022/04/16 01:16:19;;;;;;;61.10;33.83;;;4.30;99.90;;;;;;5073007;28;20025;-70
2022/04/16 01:18:46;;;;;;;72.03;38.03;;;4.30;99.90;;;;;;5072799;28;20081;-70
2022/04/16 01:21:12;;;;;;;68.05;37.83;;;4.30;99.90;;;;;;5072921;28;20517;-70
2022/04/16 01:23:38;;;;;;;81.60;41.80;;;4.30;99.90;;;;;;5072732;28;20112;-70
2022/04/16 01:26:03;;;;;;;87.78;42.15;;;4.70;99.90;;;;;;5071537;28;20523;-70
2022/04/16 01:28:29;;;;;;;78.35;41.90;;;5.10;99.90;;;;;;5072936;28;20020;-70
2022/04/16 01:30:54;;;;;;;80.35;41.10;;;5.10;99.90;;;;;;5072885;28;20119;-70
2022/04/16 01:33:21;;;;;;;70.85;40.13;;;4.90;99.90;;;;;;5072640;28;20101;-70
2022/04/16 01:35:51;;;;;;;76.82;39.78;;;4.70;99.90;;;;;;5072846;28;20561;-70
2022/04/16 01:38:17;;;;;;;83.50;41.17;;;4.60;99.90;;;;;;5072788;28;20020;-70
2022/04/16 01:40:42;;;;;;;74.78;39.58;;;4.60;99.90;;;;;;5072345;28;20021;-70
2022/04/16 01:43:08;;;;;;;75.10;39.35;;;4.50;99.90;;;;;;5072457;28;20113;-70
2022/04/16 01:45:33;;;;;;;73.43;38.83;;;4.40;99.90;;;;;;5072585;28;20029;-70
2022/04/16 01:48:00;;;;;;;81.57;40.33;;;4.40;99.90;;;;;;5072520;28;20025;-70
2022/04/16 01:50:25;;;;;;;71.38;39.97;;;4.40;99.90;;;;;;5075822;28;20024;-70
2022/04/16 01:52:52;;;;;;;71.68;39.47;;;4.30;99.90;;;;;;5076277;28;20526;-70
2022/04/16 01:55:17;;;;;;;78.32;40.15;;;4.30;99.90;;;;;;5076248;28;20064;-70
2022/04/16 01:57:43;;;;;;;77.53;39.60;;;4.30;99.90;;;;;;5075983;28;20052;-70
2022/04/16 02:00:12;;;;;;;77.95;39.55;;;4.30;99.90;;;;;;5076131;28;20020;-70
2022/04/16 02:02:38;;;;;;;78.13;40.35;;;4.20;99.90;;;;;;5076032;28;20063;-70
2022/04/16 02:05:06;;;;;;;88.38;44.38;;;4.20;99.90;;;;;;5075952;28;20364;-70
2022/04/16 02:07:31;;;;;;;98.68;48.03;;;4.50;99.90;;;;;;5075899;28;20524;-70
2022/04/16 02:09:57;;;;;;;94.22;45.20;;;5.20;99.90;;;;;;5075853;28;20024;-70
2022/04/16 02:12:22;;;;;;;86.47;44.72;;;5.00;99.90;;;;;;5075703;28;20471;-70
2022/04/16 02:14:48;;;;;;;86.30;43.20;;;4.80;99.90;;;;;;5074349;28;20067;-70
2022/04/16 02:17:14;;;;;;;90.32;43.67;;;4.70;99.90;;;;;;5075582;28;20028;-70
2022/04/16 02:19:39;;;;;;;96.88;46.60;;;4.60;99.90;;;;;;5075594;28;20028;-70
2022/04/16 02:22:05;;;;;;;113.63;51.58;;;5.00;99.90;;;;;;5075698;28;20399;-70
2022/04/16 02:24:32;;;;;;;118.30;52.13;;;5.50;99.90;;;;;;5075524;28;20475;-70
2022/04/16 02:26:58;;;;;;;116.05;54.08;;;5.70;99.90;;;;;;5075623;28;20013;-70
2022/04/16 02:29:23;;;;;;;113.60;51.58;;;5.80;99.90;;;;;;5075396;28;20038;-70
2022/04/16 02:31:49;;;;;;;97.82;48.03;;;5.90;99.90;;;;;;5075378;28;20056;-70
2022/04/16 02:34:14;;;;;;;98.28;47.22;;;5.60;99.90;;;;;;5075366;28;20029;-70
2022/04/16 02:36:40;;;;;;;90.20;45.85;;;5.40;99.90;;;;;;5075511;28;20029;-70
2022/04/16 02:39:08;;;;;;;91.28;44.55;;;5.20;99.90;;;;;;5075236;28;20104;-70
2022/04/16 02:41:34;;;;;;;85.28;43.38;;;5.00;99.90;;;;;;5074987;28;20481;-70
2022/04/16 02:43:59;;;;;;;97.10;44.13;;;4.90;99.90;;;;;;5075158;28;20097;-70
2022/04/16 02:49:13;;;;;;;83.55;42.55;;;5.30;99.90;;;;;;5073883;28;20096;-70
2022/04/16 02:51:39;;;;;;;87.05;43.25;;;5.20;99.90;;;;;;5075243;28;20489;-70
2022/04/16 02:54:05;;;;;;;92.45;43.85;;;5.00;99.90;;;;;;5074970;28;20029;-70
2022/04/16 02:56:31;;;;;;;86.85;43.53;;;5.00;99.90;;;;;;5074910;28;20016;-70
2022/04/16 02:58:56;;;;;;;95.63;45.70;;;4.90;99.90;;;;;;5074802;28;20028;-70
2022/04/16 03:01:22;;;;;;;87.45;44.00;;;4.80;99.90;;;;;;5074700;28;20055;-70
2022/04/16 03:03:47;;;;;;;89.47;44.67;;;4.80;99.90;;;;;;5074920;28;20027;-70
2022/04/16 03:06:13;;;;;;;101.30;45.45;;;4.90;99.90;;;;;;5074686;28;20375;-70
2022/04/16 03:08:39;;;;;;;108.05;48.13;;;5.00;99.90;;;;;;5074864;28;20419;-70
2022/04/16 03:11:04;;;;;;;102.35;47.90;;;5.20;99.90;;;;;;5073353;28;20140;-70
2022/04/16 03:13:34;;;;;;;106.40;46.83;;;5.10;99.90;;;;;;5074582;28;20086;-70
2022/04/16 03:18:46;;;;;;;103.05;46.05;;;4.90;99.90;;;;;;5074252;28;20043;-70
2022/04/16 03:21:12;;;;;;;111.22;49.83;;;4.90;99.90;;;;;;5074306;28;20021;-70
2022/04/16 03:23:38;;;;;;;112.70;50.90;;;5.50;99.90;;;;;;5074300;28;20021;-70
2022/04/16 03:26:04;;;;;;;111.18;49.50;;;5.80;99.90;;;;;;5074232;28;20027;-70
2022/04/16 03:28:31;;;;;;;114.03;50.70;;;5.90;99.90;;;;;;5074494;28;20020;-70
2022/04/16 03:30:57;;;;;;;101.25;47.38;;;6.00;99.90;;;;;;5074173;28;20023;-70
2022/04/16 03:33:23;;;;;;;93.50;44.67;;;5.70;99.90;;;;;;5074110;28;20023;-70
2022/04/16 03:35:49;;;;;;;94.70;43.40;;;5.30;99.90;;;;;;5074315;28;20435;-70
2022/04/16 03:38:15;;;;;;;94.25;44.95;;;5.30;99.90;;;;;;5072982;28;20032;-70
2022/04/16 03:40:41;;;;;;;104.40;47.38;;;5.30;99.90;;;;;;5073769;28;20479;-70
2022/04/16 03:43:07;;;;;;;102.65;46.90;;;5.80;99.90;;;;;;5073881;28;20107;-69
2022/04/16 03:45:34;;;;;;;105.43;47.05;;;5.90;99.90;;;;;;5073943;28;20025;-70
2022/04/16 03:48:02;;;;;;;99.28;47.83;;;6.10;99.90;;;;;;5074258;28;20566;-70
2022/04/16 03:50:30;;;;;;;107.35;47.67;;;6.10;99.90;;;;;;5074083;28;20095;-70
2022/04/16 03:52:56;;;;;;;100.18;46.88;;;6.00;99.90;;;;;;5073934;28;20039;-70
2022/04/16 04:00:58;;;;;;;95.60;45.38;;;5.40;99.90;;;;;;5073501;28;20033;-73
2022/04/16 04:03:24;;;;;;;95.75;45.60;;;5.30;99.90;;;;;;5073799;28;20025;-70
2022/04/16 04:05:53;;;;;;;99.55;46.42;;;5.30;99.90;;;;;;5073786;28;20021;-70
2022/04/16 04:08:20;;;;;;;99.38;46.95;;;5.20;99.90;;;;;;5073737;28;20082;-70
2022/04/16 04:10:46;;;;;;;96.53;44.15;;;5.10;99.90;;;;;;5073506;28;20020;-70
2022/04/16 04:13:13;;;;;;;100.15;46.33;;;5.10;99.90;;;;;;5073306;28;20028;-70
2022/04/16 04:15:39;;;;;;;99.47;45.90;;;5.20;99.90;;;;;;5073637;28;20036;-69
2022/04/16 04:18:05;;;;;;;100.07;47.08;;;5.60;99.90;;;;;;5073363;28;20028;-70
2022/04/16 04:20:31;;;;;;;92.93;46.63;;;5.70;99.90;;;;;;5073446;28;20111;-69
2022/04/16 04:22:57;;;;;;;97.03;45.00;;;5.80;99.90;;;;;;5073505;28;20116;-70
2022/04/16 04:25:22;;;;;;;108.60;47.50;;;5.80;99.90;;;;;;5073334;28;20512;-69
2022/04/16 04:27:48;;;;;;;102.75;45.65;;;5.80;99.90;;;;;;5073280;28;20024;-70
2022/04/16 04:30:14;;;;;;;101.72;45.95;;;5.80;99.90;;;;;;5072090;28;20021;-69
2022/04/16 04:32:40;;;;;;;95.63;45.13;;;5.80;99.90;;;;;;5073295;28;20067;-70
2022/04/16 04:35:07;;;;;;;89.38;44.67;;;5.90;99.90;;;;;;5073211;28;20021;-69
2022/04/16 04:37:33;;;;;;;95.78;45.10;;;5.90;99.90;;;;;;5073271;28;20032;-70
2022/04/16 04:39:59;;;;;;;95.97;43.05;;;5.90;99.90;;;;;;5073164;28;20024;-70
2022/04/16 04:42:30;;;;;;;88.15;42.42;;;5.80;99.90;;;;;;5072883;28;20048;-70
2022/04/16 04:44:56;;;;;;;90.30;40.60;;;5.90;99.90;;;;;;5071853;28;20497;-70
2022/04/16 04:47:21;;;;;;;85.97;40.25;;;6.00;99.90;;;;;;5073287;28;20514;-70
2022/04/16 04:49:49;;;;;;;85.03;41.05;;;6.00;99.90;;;;;;5073085;28;20112;-70
2022/04/16 04:52:30;;;;;;;80.97;40.42;;;6.00;99.90;;;;;;5073306;28;20090;-70
2022/04/16 04:54:57;;;;;;;74.30;37.38;;;6.10;99.90;;;;;;5073229;28;20028;-70
2022/04/16 04:57:23;;;;;;;72.82;36.88;;;6.30;99.90;;;;;;5072920;28;20056;-70
2022/04/16 04:59:49;;;;;;;67.93;34.05;;;6.30;99.90;;;;;;5071633;28;20043;-70
2022/04/16 05:02:15;;;;;;;62.97;33.67;;;6.30;99.90;;;;;;5073127;28;20485;-70
2022/04/16 05:04:41;;;;;;;67.72;33.88;;;6.30;99.90;;;;;;5071664;28;20115;-70
2022/04/16 05:07:07;;;;;;;62.92;32.90;;;6.40;99.90;;;;;;5073124;28;20491;-69
2022/04/16 05:09:33;;;;;;;53.45;28.25;;;6.70;99.90;;;;;;5072937;28;20013;-70
2022/04/16 05:11:58;;;;;;;45.30;26.73;;;6.90;99.90;;;;;;5072915;28;20021;-70
2022/04/16 05:14:24;;;;;;;45.15;25.50;;;7.00;99.90;;;;;;5072814;28;20033;-70
2022/04/16 05:16:49;;;;;;;41.95;24.65;;;7.20;99.90;;;;;;5071605;28;20158;-70
2022/04/16 05:19:15;;;;;;;39.33;22.27;;;7.20;99.90;;;;;;5073057;28;20056;-70
2022/04/16 05:21:41;;;;;;;41.15;22.80;;;7.30;99.90;;;;;;5072724;28;20025;-70
2022/04/16 05:24:07;;;;;;;36.60;21.23;;;7.40;99.90;;;;;;5074036;28;20056;-70
2022/04/16 05:26:33;;;;;;;36.88;20.60;;;7.60;99.90;;;;;;5076590;28;20048;-70
2022/04/16 05:28:59;;;;;;;38.53;20.50;;;7.70;99.90;;;;;;5075603;28;20475;-70
2022/04/16 05:31:26;;;;;;;33.38;19.92;;;7.70;99.90;;;;;;5076483;28;20033;-70
2022/04/16 05:34:23;;;;;;;30.45;18.50;;;7.70;99.90;;;;;;5076673;28;20420;-70
2022/04/16 05:36:38;;;;;;;31.40;18.45;;;7.80;99.90;;;;;;5076203;28;20070;-70
2022/04/16 05:39:04;;;;;;;34.88;17.85;;;7.90;99.90;;;;;;5076349;28;20025;-70
2022/04/16 05:41:29;;;;;;;30.77;18.42;;;8.00;99.90;;;;;;5075999;28;20052;-70
2022/04/16 05:43:55;;;;;;;29.58;16.38;;;8.30;99.90;;;;;;5076217;28;20045;-70
2022/04/16 05:46:21;;;;;;;28.33;16.83;;;8.80;99.90;;;;;;5076418;28;20447;-70
2022/04/16 05:48:46;;;;;;;27.40;17.02;;;9.50;99.90;;;;;;5076347;28;20047;-70
2022/04/16 05:51:13;;;;;;;23.65;14.23;;;10.40;99.90;;;;;;5076127;28;20017;-69
2022/04/16 05:53:39;;;;;;;22.30;13.77;;;11.70;99.90;;;;;;5076112;28;20035;-68
2022/04/16 05:56:05;;;;;;;24.00;14.75;;;12.30;99.90;;;;;;5075982;28;20024;-68
2022/04/16 05:58:31;;;;;;;22.60;13.73;;;13.00;99.90;;;;;;5076110;28;20494;-70
2022/04/16 06:00:57;;;;;;;21.92;14.13;;;13.40;99.90;;;;;;5075895;28;20019;-69
2022/04/16 06:03:23;;;;;;;19.77;13.68;;;13.20;99.90;;;;;;5075854;28;20029;-69
2022/04/16 06:05:49;;;;;;;19.15;13.82;;;13.70;99.90;;;;;;5075848;28;20063;-69
2022/04/16 06:08:14;;;;;;;25.00;14.48;;;13.20;99.90;;;;;;5076049;28;20052;-69
2022/04/16 06:10:40;;;;;;;19.65;13.25;;;12.90;99.90;;;;;;5075846;28;20103;-69
2022/04/16 06:13:05;;;;;;;23.10;14.43;;;13.40;99.90;;;;;;5075696;28;20057;-69
2022/04/16 06:15:32;;;;;;;19.73;14.15;;;13.90;99.90;;;;;;5075881;28;20367;-69
2022/04/16 06:17:57;;;;;;;19.80;13.70;;;14.10;99.90;;;;;;5074714;28;20474;-69
2022/04/16 06:20:23;;;;;;;22.55;15.00;;;14.40;99.90;;;;;;5074449;28;20115;-69
2022/04/16 06:22:49;;;;;;;23.10;14.40;;;13.30;99.90;;;;;;5075460;28;20115;-69
2022/04/16 06:25:14;;;;;;;20.98;14.52;;;13.70;99.90;;;;;;5075712;28;20020;-69
2022/04/16 06:27:40;;;;;;;21.17;14.68;;;14.10;99.90;;;;;;5075705;28;20020;-70
2022/04/16 06:30:09;;;;;;;21.38;14.07;;;13.90;99.90;;;;;;5075627;28;20386;-69
2022/04/16 06:32:35;;;;;;;22.55;14.80;;;14.60;99.90;;;;;;5075734;28;20032;-69
2022/04/16 06:35:04;;;;;;;18.73;13.88;;;14.90;99.90;;;;;;5075081;28;20063;-69
2022/04/16 06:37:32;;;;;;;22.70;13.98;;;15.00;99.90;;;;;;5075239;28;20028;-69
2022/04/16 06:39:57;;;;;;;23.73;15.20;;;14.80;99.90;;;;;;5074350;28;20463;-69
2022/04/16 06:42:23;;;;;;;21.48;13.90;;;14.40;99.90;;;;;;5074927;28;20052;-69
2022/04/16 06:44:48;;;;;;;20.38;14.88;;;14.90;99.90;;;;;;5073871;28;20174;-69
2022/04/16 06:47:14;;;;;;;19.98;14.40;;;15.60;99.90;;;;;;5075043;28;20025;-70
2022/04/16 06:49:39;;;;;;;19.95;14.48;;;16.00;99.90;;;;;;5075035;28;20388;-70
2022/04/16 06:52:05;;;;;;;21.75;14.20;;;15.60;99.90;;;;;;5074996;28;20075;-70
2022/04/16 06:54:31;;;;;;;22.42;14.05;;;14.40;99.90;;;;;;5075238;28;20054;-70
2022/04/16 06:56:56;;;;;;;21.20;14.30;;;15.10;99.90;;;;;;5073575;28;20545;-70
2022/04/16 06:59:22;;;;;;;21.58;15.18;;;14.90;99.90;;;;;;5075111;28;20036;-70
2022/04/16 07:01:47;;;;;;;18.75;13.93;;;14.50;99.90;;;;;;5074755;28;20074;-70
2022/04/16 07:04:13;;;;;;;19.13;13.95;;;14.60;99.90;;;;;;5073588;28;20017;-70
2022/04/16 07:06:41;;;;;;;17.67;13.30;;;14.80;99.90;;;;;;5074973;28;20044;-70
2022/04/16 07:09:07;;;;;;;14.98;12.18;;;15.90;99.90;;;;;;5073561;28;20479;-70
2022/04/16 07:11:33;;;;;;;16.83;13.05;;;16.70;98.00;;;;;;5073743;28;20049;-70
2022/04/16 07:13:58;;;;;;;21.50;14.15;;;16.80;98.60;;;;;;5074551;28;20141;-70
2022/04/16 07:16:24;;;;;;;19.20;13.85;;;15.20;99.90;;;;;;5074466;28;20441;-70
2022/04/16 07:18:49;;;;;;;19.17;13.20;;;16.00;99.90;;;;;;5074465;28;20108;-70
2022/04/16 07:21:15;;;;;;;19.42;13.25;;;16.70;99.30;;;;;;5074308;28;20078;-70
2022/04/16 07:23:40;;;;;;;16.10;12.10;;;16.90;96.30;;;;;;5074397;28;20024;-70
2022/04/16 07:26:06;;;;;;;17.00;13.43;;;17.20;95.60;;;;;;5074283;28;20016;-70
2022/04/16 07:28:31;;;;;;;17.15;12.75;;;17.60;94.20;;;;;;5074297;28;20099;-70
2022/04/16 07:30:57;;;;;;;19.88;13.70;;;17.60;92.20;;;;;;5074195;28;20150;-70
2022/04/16 07:33:22;;;;;;;20.05;14.88;;;16.50;96.50;;;;;;5074443;28;20025;-70
2022/04/16 07:35:48;;;;;;;16.50;12.95;;;17.20;95.00;;;;;;5074333;28;20522;-71
2022/04/16 07:38:13;;;;;;;16.27;12.35;;;16.90;92.80;;;;;;5074105;28;20475;-70
2022/04/16 07:40:39;;;;;;;16.48;12.88;;;17.40;91.70;;;;;;5072707;28;20036;-70
2022/04/16 07:43:04;;;;;;;15.95;13.18;;;17.70;92.30;;;;;;5073973;28;20479;-70
2022/04/16 07:45:31;;;;;;;17.95;12.50;;;18.70;92.00;;;;;;5074470;28;20103;-70
2022/04/16 07:47:57;;;;;;;17.35;12.25;;;19.70;89.80;;;;;;5073153;28;20032;-70
2022/04/16 07:50:22;;;;;;;16.10;12.68;;;19.80;81.40;;;;;;5073798;28;20403;-71
2022/04/16 07:52:48;;;;;;;15.70;13.30;;;18.30;84.70;;;;;;5073832;28;20028;-70
2022/04/16 07:55:15;;;;;;;18.77;13.95;;;17.60;89.60;;;;;;5073772;28;20039;-70
2022/04/16 07:57:41;;;;;;;18.77;14.35;;;17.00;91.90;;;;;;5072417;28;20024;-70
2022/04/16 08:00:09;;;;;;;17.90;13.75;;;16.30;93.00;;;;;;5073872;28;20086;-70
2022/04/16 08:02:34;;;;;;;19.00;13.80;;;14.40;94.60;;;;;;5073546;28;20058;-70
2022/04/16 08:05:00;;;;;;;19.02;13.45;;;13.70;99.90;;;;;;5073544;28;20025;-70
2022/04/16 08:07:25;;;;;;;18.13;13.82;;;14.10;99.70;;;;;;5073525;28;20017;-70
2022/04/16 08:09:52;;;;;;;17.95;14.00;;;13.30;99.90;;;;;;5073805;28;20107;-70
2022/04/16 08:12:17;;;;;;;17.35;12.95;;;14.10;99.90;;;;;;5073715;28;20024;-70
2022/04/16 08:14:43;;;;;;;18.58;13.45;;;14.60;99.00;;;;;;5073682;28;20535;-70
2022/04/16 08:17:09;;;;;;;18.40;13.20;;;13.80;99.90;;;;;;5073484;28;20068;-70
2022/04/16 08:19:34;;;;;;;17.40;13.07;;;14.40;99.90;;;;;;5073476;28;20107;-70
2022/04/16 08:22:00;;;;;;;20.98;13.55;;;14.00;99.90;;;;;;5073573;28;20036;-70
2022/04/16 08:26:55;;;;;;;15.52;11.65;;;15.20;99.90;;;;;;5073560;28;20035;-71
2022/04/16 08:29:21;;;;;;;16.27;11.38;;;16.30;96.30;;;;;;5073496;28;20442;-71
2022/04/16 08:31:47;;;;;;;13.77;10.88;;;17.30;95.00;;;;;;5073243;28;20047;-70
2022/04/16 08:34:13;;;;;;;16.38;11.52;;;17.60;90.70;;;;;;5073266;28;20036;-71
2022/04/16 08:36:38;;;;;;;14.93;10.88;;;17.80;87.00;;;;;;5072266;28;20051;-71
2022/04/16 08:39:04;;;;;;;15.32;10.52;;;17.80;90.50;;;;;;5072292;28;20024;-71
2022/04/16 08:41:30;;;;;;;14.32;11.18;;;17.00;90.70;;;;;;5072823;28;20090;-70
2022/04/16 08:43:57;;;;;;;13.98;10.75;;;17.00;90.00;;;;;;5073030;28;20467;-70
2022/04/16 08:46:26;;;;;;;12.93;10.38;;;17.10;88.90;;;;;;5073049;28;20036;-71
2022/04/16 08:48:52;;;;;;;13.98;10.18;;;17.50;85.40;;;;;;5072928;28;20020;-71
2022/04/16 08:51:19;;;;;;;12.73;10.45;;;18.20;82.70;;;;;;5073065;28;20419;-71
2022/04/16 08:53:44;;;;;;;13.85;10.45;;;18.40;77.70;;;;;;5072961;28;20029;-71
2022/04/16 08:56:10;;;;;;;13.88;10.32;;;17.80;80.70;;;;;;5071896;28;20073;-71
2022/04/16 08:58:35;;;;;;;16.35;9.90;;;17.40;82.00;;;;;;5075049;28;20029;-71
2022/04/16 09:01:01;;;;;;;12.40;10.25;;;17.50;80.50;;;;;;5077067;28;20035;-71
2022/04/16 09:03:42;;;;;;;13.77;10.15;;;16.40;82.10;;;;;;5076945;28;20532;-71
2022/04/16 09:06:08;;;;;;;11.30;9.30;;;16.00;84.30;;;;;;5076989;28;20078;-71
2022/04/16 09:08:35;;;;;;;12.18;9.43;;;17.40;81.10;;;;;;5077209;28;20021;-71
2022/04/16 09:11:05;;;;;;;10.40;8.30;;;18.60;76.10;;;;;;5076867;28;20158;-72
2022/04/16 09:13:31;;;;;;;11.38;9.02;;;18.90;71.60;;;;;;5077089;28;20029;-71
2022/04/16 09:16:12;;;;;;;11.23;8.07;;;17.80;68.40;;;;;;5075602;28;20024;-71
2022/04/16 09:18:46;;;;;;;10.57;8.52;;;18.40;70.10;;;;;;5077050;28;20383;-70
2022/04/16 09:21:13;;;;;;;9.02;7.80;;;17.50;71.20;;;;;;5075526;28;20033;-71
2022/04/16 09:23:47;;;;;;;9.30;7.05;;;16.90;69.70;;;;;;5076818;28;20055;-70
2022/04/16 09:26:23;;;;;;;10.40;7.43;;;16.80;65.90;;;;;;5076804;28;20025;-71
2022/04/16 09:28:49;;;;;;;9.15;6.90;;;16.20;66.10;;;;;;5076783;28;20032;-71
2022/04/16 09:31:15;;;;;;;9.85;6.97;;;16.00;68.20;;;;;;5076488;28;20031;-71
2022/04/16 09:33:41;;;;;;;9.85;6.55;;;16.60;68.40;;;;;;5076457;28;20493;-70
2022/04/16 09:36:06;;;;;;;8.88;6.72;;;15.90;66.40;;;;;;5076403;28;20024;-71
2022/04/16 09:38:37;;;;;;;8.05;6.50;;;17.00;65.60;;;;;;5075171;28;20065;-71
2022/04/16 09:41:05;;;;;;;6.45;5.85;;;16.60;64.00;;;;;;5076313;28;20076;-71
2022/04/16 09:43:38;;;;;;;6.97;5.80;;;16.90;59.50;;;;;;5076161;28;20028;-71
2022/04/16 09:46:11;;;;;;;6.80;5.10;;;16.90;59.60;;;;;;5076273;28;20131;-71
2022/04/16 09:48:37;;;;;;;6.65;5.03;;;16.80;60.10;;;;;;5075205;28;20732;-71
2022/04/16 09:51:04;;;;;;;6.47;4.80;;;17.10;58.10;;;;;;5076072;28;20028;-71
2022/04/16 09:53:31;;;;;;;6.05;4.47;;;17.50;57.50;;;;;;5076002;28;20067;-71
2022/04/16 09:56:00;;;;;;;6.97;4.93;;;16.40;57.20;;;;;;5074644;28;20029;-69
2022/04/16 09:58:34;;;;;;;6.68;3.90;;;17.10;57.30;;;;;;5075926;28;20024;-70
2022/04/16 10:01:01;;;;;;;4.70;3.70;;;17.10;55.60;;;;;;5075920;28;20024;-70
2022/04/16 10:03:27;;;;;;;4.68;4.18;;;17.30;55.10;;;;;;5074486;28;20052;-71
2022/04/16 10:05:55;;;;;;;4.22;3.20;;;17.20;55.40;;;;;;5076133;28;20139;-70
2022/04/16 10:08:22;;;;;;;3.80;3.10;;;16.20;55.70;;;;;;5076063;28;20463;-71
2022/04/16 10:10:54;;;;;;;4.18;2.85;;;17.10;54.40;;;;;;5075048;28;20017;-70
2022/04/16 10:13:21;;;;;;;5.45;3.10;;;16.90;52.20;;;;;;5075902;28;20035;-70
2022/04/16 10:16:12;;;;;;;3.45;2.70;;;16.80;55.10;;;;;;5075945;28;20491;-71
2022/04/16 10:18:38;;;;;;;5.80;2.50;;;16.80;51.00;;;;;;5075541;28;20372;-70
2022/04/16 10:21:04;;;;;;;3.22;2.55;;;17.30;51.00;;;;;;5075552;28;20145;-70
2022/04/16 10:26:16;;;;;;;4.78;3.03;;;17.00;50.90;;;;;;5111159;27;20351;-70
2022/04/16 10:28:53;;;;;;;4.30;3.03;;;16.50;52.50;;;;;;5111245;28;20031;-70
2022/04/16 10:31:28;;;;;;;4.22;2.97;;;16.80;54.50;;;;;;5111235;28;20482;-70
2022/04/16 10:34:10;;;;;;;3.72;2.58;;;16.90;53.90;;;;;;5111063;28;20046;-71
2022/04/16 10:36:40;;;;;;;4.47;2.42;;;17.20;51.90;;;;;;5111152;28;20024;-70
2022/04/16 10:39:15;;;;;;;4.63;2.92;;;18.10;52.30;;;;;;5109776;28;20026;-70
2022/04/16 10:41:52;;;;;;;3.47;2.40;;;17.90;53.30;;;;;;5110870;28;20077;-70
2022/04/16 10:44:18;;;;;;;2.60;1.90;;;17.10;50.60;;;;;;5110803;28;20090;-69
2022/04/16 10:46:46;;;;;;;2.25;2.05;;;16.70;50.00;;;;;;5110585;28;20024;-70
2022/04/16 10:49:12;;;;;;;3.33;2.30;;;16.20;49.20;;;;;;5110639;28;20024;-70
2022/04/16 10:51:38;;;;;;;1.85;1.58;;;16.30;51.90;;;;;;5110637;28;20016;-69
2022/04/16 10:54:32;;;;;;;2.90;1.73;;;15.80;50.90;;;;;;5110648;28;20024;-71
2022/04/16 10:56:58;;;;;;;2.92;1.60;;;15.70;52.70;;;;;;5110770;28;20072;-71
2022/04/16 10:59:41;;;;;;;1.80;1.70;;;15.10;50.40;;;;;;5110480;28;20016;-71
2022/04/16 11:02:25;;;;;;;1.80;1.45;;;15.00;50.40;;;;;;5110382;28;20024;-72
2022/04/16 11:05:09;;;;;;;1.67;1.40;;;14.70;48.90;;;;;;5110557;28;20039;-71
2022/04/16 11:07:37;;;;;;;3.58;1.88;;;15.10;50.50;;;;;;5109391;28;20482;-69
2022/04/16 11:10:06;;;;;;;3.92;1.80;;;15.30;51.50;;;;;;5110212;28;20020;-71
2022/04/16 11:12:32;;;;;;;3.85;1.77;;;15.10;52.90;;;;;;5109015;28;20106;-71
2022/04/16 11:14:58;;;;;;;3.40;1.95;;;14.70;51.70;;;;;;5110388;28;20079;-70
2022/04/16 11:17:24;;;;;;;1.90;1.58;;;15.00;53.00;;;;;;5109173;28;20390;-71
2022/04/16 11:20:07;;;;;;;2.92;2.03;;;14.60;51.90;;;;;;5110287;28;20057;-69
2022/04/16 11:22:33;;;;;;;2.78;1.80;;;14.60;52.00;;;;;;5110267;28;20065;-71
2022/04/16 11:24:58;;;;;;;3.10;1.90;;;14.80;52.40;;;;;;5109784;28;20407;-71
2022/04/16 11:36:00;;;;;;;4.15;2.25;;;15.10;52.90;;;;;;5105973;28;20034;-70
2022/04/16 11:38:28;;;;;;;3.30;1.90;;;15.30;53.30;;;;;;5096206;28;20565;-69
2022/04/16 11:40:55;;;;;;;1.70;1.60;;;15.60;53.70;;;;;;5096110;28;20091;-70
2022/04/16 11:43:23;;;;;;;3.42;1.73;;;15.70;54.10;;;;;;5096279;28;20116;-70
2022/04/16 11:45:49;;;;;;;1.73;1.63;;;15.30;52.00;;;;;;5094668;28;20533;-69
2022/04/16 11:48:15;;;;;;;1.83;1.40;;;14.70;51.40;;;;;;5095036;28;20059;-70
2022/04/16 11:50:42;;;;;;;3.47;1.70;;;15.20;53.20;;;;;;5096048;28;20017;-69
2022/04/16 11:53:11;;;;;;;2.53;1.40;;;15.30;52.20;;;;;;5096103;28;20020;-70
2022/04/16 11:55:44;;;;;;;2.03;1.80;;;15.60;52.60;;;;;;5095851;28;20020;-69
2022/04/16 11:58:10;;;;;;;2.05;1.35;;;15.60;49.70;;;;;;5095719;28;20474;-70
2022/04/16 12:00:46;;;;;;;1.15;1.05;;;15.70;49.80;;;;;;5095791;28;20032;-70
2022/04/16 12:03:13;;;;;;;1.80;1.48;;;15.50;48.90;;;;;;5095922;28;20106;-70
2022/04/16 12:05:39;;;;;;;1.73;1.45;;;15.30;47.90;;;;;;5094277;28;20027;-71
2022/04/16 12:08:07;;;;;;;2.42;1.10;;;15.10;48.10;;;;;;5095808;28;20020;-70
2022/04/16 12:10:36;;;;;;;2.60;1.33;;;14.90;49.40;;;;;;5095509;28;20028;-69
2022/04/16 12:13:09;;;;;;;4.22;1.15;;;15.00;50.00;;;;;;5095769;28;20442;-69
2022/04/16 12:15:41;;;;;;;4.55;1.33;;;14.70;49.20;;;;;;5095454;28;20035;-70
2022/04/16 12:18:10;;;;;;;2.15;1.10;;;15.10;50.50;;;;;;5095692;28;20064;-70
2022/04/16 12:20:42;;;;;;;2.42;1.00;;;15.40;50.40;;;;;;5094122;28;20038;-70
2022/04/16 12:23:12;;;;;;;2.00;1.20;;;15.00;48.90;;;;;;5094007;28;20052;-71
2022/04/16 12:25:39;;;;;;;1.35;1.05;;;14.80;48.90;;;;;;5094975;28;20047;-70
2022/04/16 12:28:10;;;;;;;3.22;1.13;;;15.10;48.60;;;;;;5095487;28;20389;-69
2022/04/16 12:30:37;;;;;;;1.88;1.00;;;14.90;47.80;;;;;;5095198;28;20097;-70
2022/04/16 12:33:05;;;;;;;1.15;0.98;;;15.10;48.40;;;;;;5095023;28;20107;-71
2022/04/16 12:35:35;;;;;;;2.08;1.02;;;14.90;47.30;;;;;;5095069;28;20035;-69
2022/04/16 12:38:02;;;;;;;1.42;0.95;;;15.10;48.50;;;;;;5093820;28;20056;-70
2022/04/16 12:40:29;;;;;;;1.60;0.90;;;15.10;48.00;;;;;;5094975;28;20020;-70
2022/04/16 12:42:56;;;;;;;2.08;1.00;;;15.10;47.20;;;;;;5093969;28;20493;-70
2022/04/16 12:45:23;;;;;;;1.05;0.80;;;15.30;47.20;;;;;;5094812;28;20016;-70
2022/04/16 12:47:49;;;;;;;0.98;0.93;;;15.20;47.60;;;;;;5093754;28;20020;-70
2022/04/16 12:50:14;;;;;;;2.35;0.80;;;15.30;48.00;;;;;;5093517;28;20470;-70
2022/04/16 12:52:41;;;;;;;1.73;1.08;;;15.10;47.70;;;;;;5093482;28;20031;-70
2022/04/16 12:55:07;;;;;;;1.58;1.20;;;15.10;47.50;;;;;;5094952;28;20028;-70
2022/04/16 12:57:32;;;;;;;1.98;1.10;;;15.10;46.90;;;;;;5094581;28;20028;-70
2022/04/16 12:59:58;;;;;;;0.70;0.70;;;15.20;47.30;;;;;;5093242;28;20024;-71